Stip, Macedonia

7:31 PM CET on December 10, 2016 (GMT +0100)
Skopje | | Change Station

Elev 784 ft 41.97 °N, 21.65 °E | Updated 31 minutes ago

Clear
Clear
30 °F
Feels Like 30 °F
N
0
Wind Variable Wind from North

Today
High -- | Low -- °F
--% Chance of Precip.
Yesterday
High -- | Low -- °F
Precip. -- in
Pressure 30.30 in
Visibility 4.3 miles
Clouds
Dew Point 25 °F
Humidity 80%
Rainfall 0.00 in
Snow Depth Not available.
6:47 AM 4:00 PM
Waxing Gibbous, 85% visible
METAR LWSK 101800Z 00000KT 7000 NSC M01/M04 Q1026 NOSIG
Pressure 30.30 in
Visibility 4.3 miles
Clouds
Dew Point 25 °F
Humidity 80%
Rainfall 0.00 in
Snow Depth Not available.
6:47 AM 4:00 PM
Waxing Gibbous, 85% visible
METAR LWSK 101800Z 00000KT 7000 NSC M01/M04 Q1026 NOSIG

10-Day Weather Forecast

×

Almanac

Astronomy

Dec. 10, 2016 Rise Set
Actual Time
Civil Twilight
Nautical Twilight
Astronomical Twilight
Moon
Length of Visible Light
Length of Day
Tomorrow will be .
, % of the Moon is Illuminated

Today's Extremes

Country Highs Country Lows

Community

WunderPhotos

Upload Photos

1,956,617 photos uploaded!

WunderBlog® & News

Nearby

Air Quality

  Air Quality AQ Index Pollutant
Not available.

Snow Depth

Station Depth Elevation

Earthquake Activity

City Distance Mag. Time & Date
Minimum magnitude displayed is 2.5.

Coastal Water Temperatures

Place Temperature

Stations

Nearby Weather Stations

Station Location Temp. Windchill Dew Point Humidity Wind Precip. Elev Updated Type